Time;durP1;ratioP1;P1;durP2;ratioP2;P2;SDS_P1;SDS_P2;PMS_P1;PMS_P2;Temp;Humidity;BMP_temperature;BMP_pressure;BME280_temperature;BME280_humidity;BME280_pressure;Samples;Min_cycle;Max_cycle;Signal;HPM_P1;HPM_P2
2023/07/30 00:02:01;;;;;;;;;;;15.50;69.90;;;;;;4121965;28;20379;-84
2023/07/30 00:04:04;;;;;;;;;;;15.50;69.80;;;;;;4094674;28;20024;-84
2023/07/30 00:06:04;;;;;;;;;;;15.40;69.80;;;;;;4135330;28;19914;-84
2023/07/30 00:08:06;;;;;;;;;;;15.40;70.00;;;;;;4120533;28;19976;-84
2023/07/30 00:10:07;;;;;;;;;;;15.40;69.60;;;;;;4121317;28;20331;-85
2023/07/30 00:12:27;;;;;;;;;;;15.40;69.80;;;;;;4119718;28;19917;-85
2023/07/30 00:14:48;;;;;;;;;;;15.40;69.70;;;;;;4120858;28;19996;-86
2023/07/30 00:17:08;;;;;;;;;;;15.30;69.60;;;;;;4127281;28;19928;-86
2023/07/30 00:19:29;;;;;;;;;;;15.30;69.90;;;;;;4119976;28;19925;-85
2023/07/30 00:21:49;;;;;;;;;;;15.30;69.90;;;;;;4110751;28;19918;-86
2023/07/30 00:24:10;;;;;;;;;;;15.30;69.60;;;;;;4119587;28;19961;-85
2023/07/30 00:26:30;;;;;;;;;;;15.30;70.00;;;;;;4135066;28;19949;-85
2023/07/30 00:28:51;;;;;;;;;;;15.30;70.00;;;;;;4145333;28;19906;-85
2023/07/30 00:31:11;;;;;;;;;;;15.20;69.80;;;;;;4120684;28;19921;-85
2023/07/30 00:33:32;;;;;;;;;;;15.20;69.80;;;;;;4123300;28;19964;-85
2023/07/30 00:35:53;;;;;;;;;;;15.20;69.80;;;;;;4120184;28;20336;-85
2023/07/30 00:38:15;;;;;;;;;;;15.20;69.80;;;;;;4120510;28;19913;-85
2023/07/30 00:40:40;;;;;;;;;;;15.20;69.80;;;;;;4120754;28;21289;-84
2023/07/30 00:43:00;;;;;;;;;;;15.20;70.00;;;;;;4124721;28;19984;-85
2023/07/30 00:45:21;;;;;;;;;;;15.20;70.80;;;;;;4119939;28;19972;-85
2023/07/30 00:47:22;;;;;;;;;;;15.20;70.50;;;;;;4115889;28;19921;-84
2023/07/30 00:49:22;;;;;;;;;;;15.10;70.50;;;;;;4122447;28;20615;-85
2023/07/30 00:51:24;;;;;;;;;;;15.10;70.40;;;;;;4124027;28;20000;-85
2023/07/30 00:53:25;;;;;;;;;;;15.10;70.30;;;;;;4122956;28;19981;-85
2023/07/30 00:55:26;;;;;;;;;;;15.10;70.10;;;;;;4122103;28;19918;-85
2023/07/30 00:57:27;;;;;;;;;;;15.00;70.30;;;;;;4133539;28;20418;-85
2023/07/30 00:59:28;;;;;;;;;;;15.00;70.50;;;;;;4135248;28;19969;-84
2023/07/30 01:01:33;;;;;;;;;;;15.00;70.40;;;;;;4121482;28;20423;-84
2023/07/30 01:03:34;;;;;;;;;;;15.10;70.60;;;;;;4123233;28;19918;-85
2023/07/30 01:05:34;;;;;;;;;;;15.00;70.80;;;;;;4106481;28;20318;-85
2023/07/30 01:07:35;;;;;;;;;;;15.00;71.10;;;;;;4120717;28;19917;-85
2023/07/30 01:09:35;;;;;;;;;;;15.00;71.10;;;;;;4122233;28;19918;-85
2023/07/30 01:11:37;;;;;;;;;;;15.00;70.90;;;;;;4119433;28;19914;-85
2023/07/30 01:13:38;;;;;;;;;;;15.00;70.70;;;;;;4137906;28;19917;-85
2023/07/30 01:15:39;;;;;;;;;;;14.90;70.80;;;;;;4107283;28;19918;-85
2023/07/30 01:17:40;;;;;;;;;;;14.90;71.00;;;;;;4123297;28;19973;-85
2023/07/30 01:19:40;;;;;;;;;;;14.90;70.90;;;;;;4120502;28;20379;-85
2023/07/30 01:21:41;;;;;;;;;;;14.90;71.30;;;;;;4122987;28;19914;-85
2023/07/30 01:23:41;;;;;;;;;;;14.90;71.10;;;;;;4138545;28;20383;-85
2023/07/30 01:25:44;;;;;;;;;;;14.90;71.00;;;;;;4122271;28;20286;-85
2023/07/30 01:27:48;;;;;;;;;;;14.90;71.60;;;;;;4120953;28;19914;-85
2023/07/30 01:29:51;;;;;;;;;;;14.90;72.10;;;;;;4122446;28;20005;-85
2023/07/30 01:31:55;;;;;;;;;;;14.90;72.00;;;;;;4121502;28;20299;-85
2023/07/30 01:33:56;;;;;;;;;;;14.90;72.40;;;;;;4122893;28;19965;-85
2023/07/30 01:35:57;;;;;;;;;;;14.90;72.20;;;;;;4122146;28;20343;-86
2023/07/30 01:38:02;;;;;;;;;;;14.90;72.30;;;;;;4123740;28;19922;-85
2023/07/30 01:40:03;;;;;;;;;;;14.90;72.20;;;;;;4127365;28;20001;-85
2023/07/30 01:42:04;;;;;;;;;;;14.80;71.90;;;;;;4123222;28;20394;-85
2023/07/30 01:44:04;;;;;;;;;;;14.80;71.80;;;;;;4125115;28;19957;-85
2023/07/30 01:46:05;;;;;;;;;;;14.80;71.80;;;;;;4124910;28;19914;-85
2023/07/30 01:48:06;;;;;;;;;;;14.90;71.90;;;;;;4120432;28;19918;-85
2023/07/30 01:50:06;;;;;;;;;;;14.80;71.70;;;;;;4121902;28;20291;-85
2023/07/30 01:52:07;;;;;;;;;;;14.70;71.70;;;;;;4133446;28;20298;-85
2023/07/30 01:54:07;;;;;;;;;;;14.80;71.70;;;;;;4121710;28;20511;-85
2023/07/30 01:56:08;;;;;;;;;;;14.80;71.90;;;;;;4121359;28;20474;-85
2023/07/30 01:58:09;;;;;;;;;;;14.80;72.50;;;;;;4121306;28;19966;-85
2023/07/30 02:00:10;;;;;;;;;;;14.80;72.20;;;;;;4120700;28;19918;-85
2023/07/30 02:02:10;;;;;;;;;;;14.70;72.40;;;;;;4135252;28;20377;-85
2023/07/30 02:04:11;;;;;;;;;;;14.70;72.60;;;;;;4122308;28;20306;-85
2023/07/30 02:06:12;;;;;;;;;;;14.70;72.70;;;;;;4137207;28;19917;-85
2023/07/30 02:08:15;;;;;;;;;;;14.70;72.70;;;;;;4123386;28;20462;-85
2023/07/30 02:10:16;;;;;;;;;;;14.70;72.70;;;;;;4122220;28;19945;-86
2023/07/30 02:12:17;;;;;;;;;;;14.70;72.60;;;;;;4123910;28;20362;-85
2023/07/30 02:14:17;;;;;;;;;;;14.60;72.30;;;;;;4121146;28;19944;-86
2023/07/30 02:16:18;;;;;;;;;;;14.60;72.50;;;;;;4122572;28;19969;-85
2023/07/30 02:18:19;;;;;;;;;;;14.60;72.30;;;;;;4119381;28;19964;-86
2023/07/30 02:20:19;;;;;;;;;;;14.60;71.90;;;;;;4119223;28;20331;-85
2023/07/30 02:22:20;;;;;;;;;;;14.60;71.90;;;;;;4118921;28;20012;-85
2023/07/30 02:24:20;;;;;;;;;;;14.60;71.90;;;;;;4121005;28;19917;-85
2023/07/30 02:26:21;;;;;;;;;;;14.60;71.90;;;;;;4139873;28;20342;-85
2023/07/30 02:28:22;;;;;;;;;;;14.60;71.90;;;;;;4121492;28;19921;-85
2023/07/30 02:30:22;;;;;;;;;;;14.60;72.00;;;;;;4124416;28;19925;-85
2023/07/30 02:32:23;;;;;;;;;;;14.60;72.30;;;;;;4133972;28;20429;-85
2023/07/30 02:34:23;;;;;;;;;;;14.60;72.30;;;;;;4123286;28;19921;-85
2023/07/30 02:36:24;;;;;;;;;;;14.60;73.20;;;;;;4134918;28;20366;-85
2023/07/30 02:38:25;;;;;;;;;;;14.60;72.80;;;;;;4118315;28;20026;-86
2023/07/30 02:40:25;;;;;;;;;;;14.60;72.50;;;;;;4117743;28;19924;-86
2023/07/30 02:42:26;;;;;;;;;;;14.50;72.40;;;;;;4121652;28;20516;-85
2023/07/30 02:44:26;;;;;;;;;;;14.50;72.60;;;;;;4121772;28;19968;-86
2023/07/30 02:46:27;;;;;;;;;;;14.50;72.60;;;;;;4120115;28;19977;-84
2023/07/30 02:48:28;;;;;;;;;;;14.50;72.50;;;;;;4120183;28;19918;-85
2023/07/30 02:50:28;;;;;;;;;;;14.60;72.50;;;;;;4118715;28;19921;-84
2023/07/30 02:52:29;;;;;;;;;;;14.50;72.50;;;;;;4118379;28;19982;-85
2023/07/30 02:54:29;;;;;;;;;;;14.50;72.50;;;;;;4118269;28;20321;-86
2023/07/30 02:56:30;;;;;;;;;;;14.50;72.50;;;;;;4137223;28;19921;-84
2023/07/30 02:58:31;;;;;;;;;;;14.60;72.60;;;;;;4124051;28;19918;-85
2023/07/30 03:00:31;;;;;;;;;;;14.50;73.10;;;;;;4119410;28;20049;-85
2023/07/30 03:02:32;;;;;;;;;;;14.40;73.50;;;;;;4121701;28;20409;-85
2023/07/30 03:04:32;;;;;;;;;;;14.50;73.50;;;;;;4120552;28;19914;-84
2023/07/30 03:06:33;;;;;;;;;;;14.40;73.50;;;;;;4120422;28;20355;-85
2023/07/30 03:08:35;;;;;;;;;;;14.40;73.50;;;;;;4121701;28;20185;-85
2023/07/30 03:10:36;;;;;;;;;;;14.40;73.30;;;;;;4136528;28;19956;-85
2023/07/30 03:12:37;;;;;;;;;;;14.40;73.50;;;;;;4122409;28;19921;-85
2023/07/30 03:14:38;;;;;;;;;;;14.50;73.90;;;;;;4133478;28;20032;-85
2023/07/30 03:16:38;;;;;;;;;;;14.40;74.40;;;;;;4127247;28;19910;-86
2023/07/30 03:18:39;;;;;;;;;;;14.40;73.40;;;;;;4155195;28;19914;-85
2023/07/30 03:20:39;;;;;;;;;;;14.40;73.20;;;;;;4143421;28;20307;-85
2023/07/30 03:22:40;;;;;;;;;;;14.40;73.60;;;;;;4119928;28;20380;-85
2023/07/30 03:24:41;;;;;;;;;;;14.40;74.00;;;;;;4118423;28;19965;-85
2023/07/30 03:26:41;;;;;;;;;;;14.30;73.90;;;;;;4120068;28;19914;-84
2023/07/30 03:28:45;;;;;;;;;;;14.40;73.80;;;;;;4120932;28;20291;-84
2023/07/30 03:31:05;;;;;;;;;;;14.30;74.00;;;;;;4118856;28;19918;-85
2023/07/30 03:33:12;;;;;;;;;;;14.30;74.10;;;;;;4136584;28;19918;-85
2023/07/30 03:35:32;;;;;;;;;;;14.40;73.90;;;;;;4120727;28;19921;-84
2023/07/30 03:37:53;;;;;;;;;;;14.40;74.00;;;;;;4117233;28;19921;-84
2023/07/30 03:40:14;;;;;;;;;;;14.40;73.90;;;;;;4123335;28;19933;-85
2023/07/30 03:42:34;;;;;;;;;;;14.40;73.80;;;;;;4125808;28;19976;-85
2023/07/30 03:44:35;;;;;;;;;;;14.40;73.70;;;;;;4141197;28;19913;-85
2023/07/30 03:46:55;;;;;;;;;;;14.40;73.60;;;;;;4122529;28;19924;-85
2023/07/30 03:49:16;;;;;;;;;;;14.50;73.60;;;;;;4121676;28;19921;-85
2023/07/30 03:51:38;;;;;;;;;;;14.40;73.90;;;;;;4134556;28;21246;-84
2023/07/30 03:53:59;;;;;;;;;;;14.40;74.30;;;;;;4124462;28;19922;-85
2023/07/30 03:56:19;;;;;;;;;;;14.40;74.80;;;;;;4120155;28;19925;-85
2023/07/30 03:58:40;;;;;;;;;;;14.40;74.80;;;;;;4122709;28;19933;-86
2023/07/30 04:01:00;;;;;;;;;;;14.50;74.40;;;;;;4122343;28;19921;-85
2023/07/30 04:03:21;;;;;;;;;;;14.40;74.00;;;;;;4124631;28;20103;-85
2023/07/30 04:05:41;;;;;;;;;;;14.40;74.00;;;;;;4139290;28;19960;-84
2023/07/30 04:08:02;;;;;;;;;;;14.40;74.70;;;;;;4124703;28;19976;-85
2023/07/30 04:10:03;;;;;;;;;;;14.50;74.50;;;;;;4125087;28;19917;-85
2023/07/30 04:12:04;;;;;;;;;;;14.50;74.40;;;;;;4120387;28;20024;-85
2023/07/30 04:14:07;;;;;;;;;;;14.50;74.40;;;;;;4123850;28;19944;-86
2023/07/30 04:16:08;;;;;;;;;;;14.50;74.00;;;;;;4123370;28;19930;-86
2023/07/30 04:18:08;;;;;;;;;;;14.60;73.70;;;;;;4120272;28;20161;-86
2023/07/30 04:20:09;;;;;;;;;;;14.60;74.10;;;;;;4120370;28;19922;-85
2023/07/30 04:22:10;;;;;;;;;;;14.60;74.30;;;;;;4139219;28;19924;-85
2023/07/30 04:24:10;;;;;;;;;;;14.70;75.50;;;;;;4122090;28;19926;-86
2023/07/30 04:26:12;;;;;;;;;;;14.70;75.80;;;;;;4126601;28;19917;-85
2023/07/30 04:28:12;;;;;;;;;;;14.70;76.50;;;;;;4122772;28;20185;-84
2023/07/30 04:30:13;;;;;;;;;;;14.70;76.00;;;;;;4121983;28;19937;-84
2023/07/30 04:32:14;;;;;;;;;;;14.80;76.90;;;;;;4124045;28;19918;-85
2023/07/30 04:34:15;;;;;;;;;;;14.90;76.80;;;;;;4119111;28;20012;-85
2023/07/30 04:36:15;;;;;;;;;;;14.90;76.90;;;;;;4134871;28;20147;-86
2023/07/30 04:38:16;;;;;;;;;;;14.90;77.60;;;;;;4123312;28;19914;-85
2023/07/30 04:40:17;;;;;;;;;;;15.00;77.30;;;;;;4120350;28;19998;-85
2023/07/30 04:42:17;;;;;;;;;;;15.00;76.80;;;;;;4119659;28;19960;-85
2023/07/30 04:44:18;;;;;;;;;;;15.10;76.70;;;;;;4121194;28;20265;-85
2023/07/30 04:46:18;;;;;;;;;;;15.10;76.50;;;;;;4123386;28;19926;-85
2023/07/30 04:48:19;;;;;;;;;;;15.20;76.40;;;;;;4120722;28;19921;-85
2023/07/30 04:50:19;;;;;;;;;;;15.10;76.40;;;;;;4122020;28;19969;-85
2023/07/30 04:52:20;;;;;;;;;;;15.20;76.70;;;;;;4124813;28;19924;-85
2023/07/30 04:54:21;;;;;;;;;;;15.30;78.10;;;;;;4138135;28;19913;-85
2023/07/30 04:56:21;;;;;;;;;;;15.30;77.50;;;;;;4118905;28;19918;-84
2023/07/30 04:58:22;;;;;;;;;;;15.30;77.50;;;;;;4120818;28;19922;-85
2023/07/30 05:00:24;;;;;;;;;;;15.40;77.30;;;;;;4118230;28;20009;-85
2023/07/30 05:02:25;;;;;;;;;;;15.40;78.00;;;;;;4124671;28;19914;-85
2023/07/30 05:04:25;;;;;;;;;;;15.40;77.80;;;;;;4120688;28;20532;-85
2023/07/30 05:06:26;;;;;;;;;;;15.50;77.90;;;;;;4118848;28;20005;-85
2023/07/30 05:08:27;;;;;;;;;;;15.50;77.60;;;;;;4118970;28;19926;-84
2023/07/30 05:10:27;;;;;;;;;;;15.60;78.20;;;;;;4120997;28;19914;-85
2023/07/30 05:12:28;;;;;;;;;;;15.70;77.80;;;;;;4120145;28;19992;-85
2023/07/30 05:14:28;;;;;;;;;;;15.70;77.90;;;;;;4124434;28;20016;-85
2023/07/30 05:16:29;;;;;;;;;;;15.70;78.90;;;;;;4124466;28;19925;-84
2023/07/30 05:18:30;;;;;;;;;;;15.80;79.50;;;;;;4121500;28;19924;-85
2023/07/30 05:20:31;;;;;;;;;;;15.80;79.50;;;;;;4133549;28;20115;-86
2023/07/30 05:22:32;;;;;;;;;;;15.90;79.70;;;;;;4135810;28;19957;-85
2023/07/30 05:24:32;;;;;;;;;;;16.00;79.60;;;;;;4105603;28;19917;-85
2023/07/30 05:26:33;;;;;;;;;;;16.10;79.20;;;;;;4120470;28;19925;-85
2023/07/30 05:28:33;;;;;;;;;;;16.20;80.00;;;;;;4121712;28;19913;-85
2023/07/30 05:30:34;;;;;;;;;;;16.20;79.60;;;;;;4115254;28;19921;-85
2023/07/30 05:32:34;;;;;;;;;;;16.30;79.50;;;;;;4116607;28;19965;-85
2023/07/30 05:34:36;;;;;;;;;;;16.40;79.70;;;;;;4122509;28;19924;-85
2023/07/30 05:36:36;;;;;;;;;;;16.40;79.50;;;;;;4123177;28;19961;-85
2023/07/30 05:38:57;;;;;;;;;;;16.50;79.80;;;;;;4132388;28;19925;-86
2023/07/30 05:41:18;;;;;;;;;;;16.60;79.50;;;;;;4132534;28;19928;-85
2023/07/30 05:43:28;;;;;;;;;;;16.60;79.30;;;;;;4137393;28;20092;-86
2023/07/30 05:45:48;;;;;;;;;;;16.60;79.20;;;;;;4131714;28;19948;-87
2023/07/30 05:48:10;;;;;;;;;;;16.80;80.30;;;;;;4119932;28;19949;-85
2023/07/30 05:50:30;;;;;;;;;;;16.80;78.90;;;;;;4115434;28;20614;-86
2023/07/30 05:52:51;;;;;;;;;;;16.90;78.70;;;;;;4117799;28;19965;-87
2023/07/30 05:55:11;;;;;;;;;;;17.00;79.00;;;;;;4119699;28;19980;-86
2023/07/30 05:57:32;;;;;;;;;;;17.00;78.10;;;;;;4118890;28;19918;-86
2023/07/30 05:59:49;;;;;;;;;;;17.10;78.10;;;;;;4117718;28;20540;-86
2023/07/30 06:02:10;;;;;;;;;;;17.20;79.50;;;;;;4120287;28;19945;-85
2023/07/30 06:04:31;;;;;;;;;;;17.20;79.50;;;;;;4120825;28;19976;-86
2023/07/30 06:06:41;;;;;;;;;;;17.30;78.70;;;;;;4156186;28;19914;-86
2023/07/30 06:09:02;;;;;;;;;;;17.40;78.70;;;;;;4130191;28;19914;-85
2023/07/30 06:11:23;;;;;;;;;;;17.50;79.00;;;;;;4121258;28;20022;-85
2023/07/30 06:13:43;;;;;;;;;;;17.50;79.60;;;;;;4118259;28;19957;-86
2023/07/30 06:15:49;;;;;;;;;;;17.60;79.50;;;;;;4112828;28;19914;-85
2023/07/30 06:18:09;;;;;;;;;;;17.70;79.10;;;;;;4117970;28;19941;-85
2023/07/30 06:20:30;;;;;;;;;;;17.80;79.10;;;;;;4116270;28;19925;-85
2023/07/30 06:22:51;;;;;;;;;;;17.80;79.50;;;;;;4119205;28;19922;-86
2023/07/30 06:25:11;;;;;;;;;;;17.90;79.50;;;;;;4118810;28;19914;-85
2023/07/30 06:27:32;;;;;;;;;;;18.00;79.20;;;;;;4118826;28;19918;-85
2023/07/30 06:29:52;;;;;;;;;;;18.10;79.70;;;;;;4118778;28;19960;-86
2023/07/30 06:31:53;;;;;;;;;;;18.10;79.00;;;;;;4116622;28;19921;-85
2023/07/30 06:33:55;;;;;;;;;;;18.20;78.60;;;;;;4115457;28;19918;-85
2023/07/30 06:35:55;;;;;;;;;;;18.30;78.90;;;;;;4132883;28;19913;-85
2023/07/30 06:37:56;;;;;;;;;;;18.30;79.60;;;;;;4115669;28;19924;-85
2023/07/30 06:39:57;;;;;;;;;;;18.40;78.90;;;;;;4110748;28;19991;-84
2023/07/30 06:41:57;;;;;;;;;;;18.50;78.60;;;;;;4114785;28;19922;-85
2023/07/30 06:43:58;;;;;;;;;;;18.50;78.20;;;;;;4116600;28;19965;-85
2023/07/30 06:45:58;;;;;;;;;;;18.60;77.60;;;;;;4118490;28;19914;-86
2023/07/30 06:47:59;;;;;;;;;;;18.60;78.00;;;;;;4120026;28;19925;-85
2023/07/30 06:49:59;;;;;;;;;;;18.70;77.60;;;;;;4116770;28;19914;-86
2023/07/30 06:52:00;;;;;;;;;;;18.70;77.90;;;;;;4118688;28;19922;-84
2023/07/30 06:54:01;;;;;;;;;;;18.80;77.80;;;;;;4120102;28;19921;-84
2023/07/30 06:56:01;;;;;;;;;;;18.80;77.40;;;;;;4102474;28;19914;-88
2023/07/30 06:58:02;;;;;;;;;;;18.80;78.00;;;;;;4118178;28;19910;-85
2023/07/30 07:00:03;;;;;;;;;;;19.00;77.80;;;;;;4116235;28;20469;-85
2023/07/30 07:02:05;;;;;;;;;;;19.00;77.50;;;;;;4115225;28;19930;-85
2023/07/30 07:04:07;;;;;;;;;;;19.10;77.70;;;;;;4099239;28;20013;-85
2023/07/30 07:06:12;;;;;;;;;;;19.10;76.90;;;;;;4112740;28;20353;-84
2023/07/30 07:08:12;;;;;;;;;;;19.20;76.50;;;;;;4117464;28;20012;-85
2023/07/30 07:10:13;;;;;;;;;;;19.30;75.90;;;;;;4118938;28;19918;-84
2023/07/30 07:12:13;;;;;;;;;;;19.40;75.20;;;;;;4119260;28;19924;-86
2023/07/30 07:14:14;;;;;;;;;;;19.30;73.90;;;;;;4120595;28;19924;-86
2023/07/30 07:16:35;;;;;;;;;;;19.40;73.70;;;;;;4133835;28;19928;-86
2023/07/30 07:18:55;;;;;;;;;;;19.40;74.00;;;;;;4126991;28;20394;-85
2023/07/30 07:21:16;;;;;;;;;;;19.50;74.50;;;;;;4122635;28;19925;-85
2023/07/30 07:23:36;;;;;;;;;;;19.60;74.50;;;;;;4122454;28;19925;-85
2023/07/30 07:25:57;;;;;;;;;;;19.60;74.50;;;;;;4120349;28;19910;-84
2023/07/30 07:28:18;;;;;;;;;;;19.70;74.10;;;;;;4123301;28;19916;-84
2023/07/30 07:30:39;;;;;;;;;;;19.80;73.90;;;;;;4122407;28;19922;-85
2023/07/30 07:32:59;;;;;;;;;;;19.80;73.40;;;;;;4125255;28;20005;-86
2023/07/30 07:35:20;;;;;;;;;;;19.90;72.20;;;;;;4133495;28;20016;-85
2023/07/30 07:37:41;;;;;;;;;;;19.90;70.50;;;;;;4122118;28;20005;-85
2023/07/30 07:40:03;;;;;;;;;;;19.90;68.70;;;;;;4125065;28;21065;-85
2023/07/30 07:42:23;;;;;;;;;;;19.90;69.10;;;;;;4124315;28;19910;-85
2023/07/30 07:44:24;;;;;;;;;;;19.90;69.20;;;;;;4123627;28;19933;-86
2023/07/30 07:46:27;;;;;;;;;;;20.00;69.10;;;;;;4121380;28;19917;-86
2023/07/30 07:48:27;;;;;;;;;;;20.00;68.90;;;;;;4124091;28;19924;-85
2023/07/30 07:50:28;;;;;;;;;;;20.10;69.60;;;;;;4125799;28;19949;-86
2023/07/30 07:52:29;;;;;;;;;;;20.10;69.80;;;;;;4138575;28;19921;-85
2023/07/30 07:54:29;;;;;;;;;;;20.20;70.30;;;;;;4125796;28;20020;-85
2023/07/30 07:56:31;;;;;;;;;;;20.30;70.00;;;;;;4133074;28;20610;-86
2023/07/30 07:58:32;;;;;;;;;;;20.30;69.10;;;;;;4138499;28;19913;-86
2023/07/30 08:00:33;;;;;;;;;;;20.40;68.70;;;;;;4121717;28;20371;-87
2023/07/30 08:02:34;;;;;;;;;;;20.50;69.10;;;;;;4126855;28;20146;-86
2023/07/30 08:04:34;;;;;;;;;;;20.50;67.50;;;;;;4121292;28;19914;-86
2023/07/30 08:06:41;;;;;;;;;;;20.60;68.50;;;;;;4119442;28;19918;-85
2023/07/30 08:09:08;;;;;;;;;;;20.70;68.50;;;;;;4115860;28;19918;-85
2023/07/30 08:11:28;;;;;;;;;;;20.80;66.60;;;;;;4119512;28;19914;-85
2023/07/30 08:13:49;;;;;;;;;;;20.90;66.50;;;;;;4118712;28;19926;-87
2023/07/30 08:16:10;;;;;;;;;;;21.00;64.80;;;;;;4118145;28;20362;-86
2023/07/30 08:18:49;;;;;;;;;;;21.00;63.60;;;;;;4118874;28;19928;-85
2023/07/30 08:21:13;;;;;;;;;;;21.10;63.80;;;;;;4116869;28;20766;-86
2023/07/30 08:23:34;;;;;;;;;;;21.10;63.80;;;;;;4121157;28;19985;-86
2023/07/30 08:25:54;;;;;;;;;;;21.20;64.20;;;;;;4118601;28;19918;-86
2023/07/30 08:28:15;;;;;;;;;;;21.10;64.20;;;;;;4118862;28;20414;-87
2023/07/30 08:30:36;;;;;;;;;;;21.30;65.20;;;;;;4117568;28;19957;-87
2023/07/30 08:32:56;;;;;;;;;;;21.30;64.90;;;;;;4120853;28;19960;-88
2023/07/30 08:34:57;;;;;;;;;;;21.30;64.50;;;;;;4120828;28;19917;-86
2023/07/30 08:37:00;;;;;;;;;;;21.40;65.20;;;;;;4120749;28;19914;-86
2023/07/30 08:39:02;;;;;;;;;;;21.40;62.90;;;;;;4120818;28;19921;-86
2023/07/30 08:41:02;;;;;;;;;;;21.50;61.20;;;;;;4117055;28;19917;-86
2023/07/30 08:43:04;;;;;;;;;;;21.50;60.80;;;;;;4115054;28;19992;-87
2023/07/30 08:45:05;;;;;;;;;;;21.60;62.10;;;;;;4119066;28;20315;-86
2023/07/30 08:47:06;;;;;;;;;;;21.50;58.50;;;;;;4119292;28;19917;-88
2023/07/30 08:49:07;;;;;;;;;;;21.60;59.70;;;;;;4117708;28;20320;-85
2023/07/30 08:51:07;;;;;;;;;;;21.60;58.40;;;;;;4117633;28;19925;-86
2023/07/30 08:53:10;;;;;;;;;;;21.70;59.50;;;;;;4121150;28;19922;-86
2023/07/30 08:55:11;;;;;;;;;;;21.70;60.20;;;;;;4102132;28;20091;-88
2023/07/30 08:57:32;;;;;;;;;;;21.80;60.70;;;;;;4130383;28;19948;-87
2023/07/30 08:59:58;;;;;;;;;;;22.00;59.90;;;;;;4119814;28;19921;-87
2023/07/30 09:02:24;;;;;;;;;;;22.00;61.20;;;;;;4118142;28;20406;-86
2023/07/30 09:04:47;;;;;;;;;;;22.10;59.50;;;;;;4117194;28;20383;-85
2023/07/30 09:07:09;;;;;;;;;;;22.20;60.40;;;;;;4128413;28;20786;-87
2023/07/30 09:09:30;;;;;;;;;;;22.30;59.80;;;;;;4140659;28;19922;-90
2023/07/30 09:11:34;;;;;;;;;;;22.40;59.60;;;;;;4118274;28;19918;-87
2023/07/30 09:13:37;;;;;;;;;;;22.50;59.20;;;;;;4118882;28;19925;-87
2023/07/30 09:15:38;;;;;;;;;;;22.50;58.70;;;;;;4118820;28;19918;-87
2023/07/30 09:17:38;;;;;;;;;;;22.60;58.60;;;;;;4116628;28;19928;-87
2023/07/30 09:19:40;;;;;;;;;;;22.70;57.00;;;;;;4112404;28;20405;-86
2023/07/30 09:21:41;;;;;;;;;;;22.80;58.20;;;;;;4091227;28;20454;-87
2023/07/30 09:24:21;;;;;;;;;;;22.80;57.00;;;;;;4104664;28;20433;-90
2023/07/30 09:26:43;;;;;;;;;;;22.90;58.90;;;;;;4112273;28;20017;-87
2023/07/30 09:29:07;;;;;;;;;;;23.00;55.70;;;;;;4119148;28;20318;-86
2023/07/30 09:31:27;;;;;;;;;;;23.10;56.80;;;;;;4120403;28;20407;-88
2023/07/30 09:33:51;;;;;;;;;;;23.10;56.20;;;;;;4116794;28;20384;-87
2023/07/30 09:36:11;;;;;;;;;;;23.20;54.90;;;;;;4121252;28;19956;-88
2023/07/30 09:38:14;;;;;;;;;;;23.20;55.20;;;;;;4116122;28;19957;-87
2023/07/30 09:40:42;;;;;;;;;;;23.30;56.50;;;;;;4117622;28;20387;-90
2023/07/30 09:43:05;;;;;;;;;;;23.30;56.00;;;;;;4144992;28;19974;-87
2023/07/30 09:50:37;;;;;;;;;;;23.30;54.00;;;;;;4127637;28;20340;-88
2023/07/30 09:53:01;;;;;;;;;;;23.40;54.00;;;;;;4150781;28;20279;-87
2023/07/30 09:55:03;;;;;;;;;;;23.50;55.70;;;;;;4141014;28;19913;-88
2023/07/30 09:57:23;;;;;;;;;;;23.50;54.20;;;;;;4133364;28;19917;-86
2023/07/30 09:59:24;;;;;;;;;;;23.40;54.30;;;;;;4133291;28;19924;-89
2023/07/30 10:01:53;;;;;;;;;;;23.50;54.20;;;;;;4128275;28;20418;-85
2023/07/30 10:04:14;;;;;;;;;;;23.40;55.10;;;;;;4131295;28;20356;-87
2023/07/30 10:06:41;;;;;;;;;;;23.40;53.60;;;;;;4130737;28;20264;-88
2023/07/30 10:09:01;;;;;;;;;;;23.40;52.60;;;;;;4128721;28;20044;-89
2023/07/30 10:11:27;;;;;;;;;;;23.30;53.60;;;;;;4130053;28;19922;-89
2023/07/30 10:13:48;;;;;;;;;;;23.30;53.80;;;;;;4124394;28;20387;-87
2023/07/30 10:19:08;;;;;;;;;;;23.20;54.00;;;;;;4134579;28;20372;-88
2023/07/30 10:21:31;;;;;;;;;;;23.10;53.30;;;;;;4133124;28;19918;-87
2023/07/30 10:23:34;;;;;;;;;;;23.10;52.30;;;;;;4118791;28;21529;-85
2023/07/30 10:25:56;;;;;;;;;;;23.10;52.80;;;;;;4131727;28;20073;-87
2023/07/30 10:28:38;;;;;;;;;;;23.00;52.90;;;;;;4129082;28;20752;-88
2023/07/30 10:31:00;;;;;;;;;;;23.00;53.80;;;;;;4129206;28;19921;-88
2023/07/30 10:33:15;;;;;;;;;;;22.90;54.60;;;;;;4127164;28;19913;-84
2023/07/30 10:35:35;;;;;;;;;;;22.90;54.60;;;;;;4131628;28;20360;-86
2023/07/30 10:37:55;;;;;;;;;;;22.80;54.70;;;;;;4131453;28;20387;-86
2023/07/30 10:40:17;;;;;;;;;;;22.70;55.00;;;;;;4133013;28;20378;-86
2023/07/30 10:42:37;;;;;;;;;;;22.70;55.00;;;;;;4125094;28;19917;-87
2023/07/30 10:44:58;;;;;;;;;;;22.60;55.10;;;;;;4134813;28;20462;-87
2023/07/30 10:47:19;;;;;;;;;;;22.50;55.10;;;;;;4132368;28;19968;-88
2023/07/30 10:49:43;;;;;;;;;;;22.50;55.20;;;;;;4138085;28;19921;-87
2023/07/30 10:52:04;;;;;;;;;;;22.40;55.60;;;;;;4130257;28;20546;-87
2023/07/30 10:54:27;;;;;;;;;;;22.40;55.90;;;;;;4133631;28;19929;-88
2023/07/30 10:56:51;;;;;;;;;;;22.30;55.70;;;;;;4135804;28;20434;-89
2023/07/30 10:59:12;;;;;;;;;;;22.40;55.70;;;;;;4136624;28;20753;-86
2023/07/30 11:01:13;;;;;;;;;;;22.30;56.00;;;;;;4133502;28;19913;-86
2023/07/30 11:03:14;;;;;;;;;;;22.30;55.50;;;;;;4135441;28;19995;-87
2023/07/30 11:05:15;;;;;;;;;;;22.30;56.00;;;;;;4142917;28;20016;-89
2023/07/30 11:07:19;;;;;;;;;;;22.30;56.00;;;;;;4132555;28;19928;-87
2023/07/30 11:09:20;;;;;;;;;;;22.30;56.30;;;;;;4140425;28;19996;-87
2023/07/30 11:11:23;;;;;;;;;;;22.30;56.40;;;;;;4136001;28;19959;-91
2023/07/30 11:13:24;;;;;;;;;;;22.30;56.60;;;;;;4134559;28;19928;-87
2023/07/30 11:15:24;;;;;;;;;;;22.40;57.40;;;;;;4131124;28;20044;-87
2023/07/30 11:17:26;;;;;;;;;;;22.40;57.00;;;;;;4121773;28;19914;-87
2023/07/30 11:19:27;;;;;;;;;;;22.50;56.40;;;;;;4113603;28;19965;-86
2023/07/30 11:21:28;;;;;;;;;;;22.50;56.60;;;;;;4132607;28;19975;-88
2023/07/30 11:23:28;;;;;;;;;;;22.60;57.00;;;;;;4132278;28;20627;-87
2023/07/30 11:25:29;;;;;;;;;;;22.60;56.30;;;;;;4120687;28;19985;-87
2023/07/30 11:27:44;;;;;;;;;;;22.70;56.80;;;;;;4118584;28;20177;-88
2023/07/30 11:29:53;;;;;;;;;;;22.70;57.20;;;;;;4137379;28;19914;-87
2023/07/30 11:32:02;;;;;;;;;;;22.80;57.20;;;;;;4133560;28;19920;-88
2023/07/30 11:34:03;;;;;;;;;;;22.80;57.30;;;;;;4131990;28;19948;-88
2023/07/30 11:36:06;;;;;;;;;;;22.80;57.40;;;;;;4132998;28;20427;-87
2023/07/30 11:38:07;;;;;;;;;;;22.70;57.20;;;;;;4122276;28;20350;-87
2023/07/30 11:40:12;;;;;;;;;;;22.70;57.00;;;;;;4119506;28;20094;-87
2023/07/30 11:42:16;;;;;;;;;;;22.60;56.40;;;;;;4120116;28;19918;-88
2023/07/30 11:44:37;;;;;;;;;;;22.60;56.50;;;;;;4144441;28;20279;-87
2023/07/30 11:46:38;;;;;;;;;;;22.60;56.80;;;;;;4134943;28;20023;-88
2023/07/30 11:48:39;;;;;;;;;;;22.50;56.90;;;;;;4132649;28;20458;-87
2023/07/30 11:50:43;;;;;;;;;;;22.50;56.40;;;;;;4131348;28;20020;-87
2023/07/30 11:52:53;;;;;;;;;;;22.40;56.00;;;;;;4118937;28;19953;-88
2023/07/30 11:55:02;;;;;;;;;;;22.50;56.40;;;;;;4151422;28;19991;-90
2023/07/30 11:57:03;;;;;;;;;;;22.40;55.80;;;;;;4147338;28;20303;-87
2023/07/30 11:59:07;;;;;;;;;;;22.40;55.40;;;;;;4134921;28;19920;-86
2023/07/30 12:01:08;;;;;;;;;;;22.30;55.40;;;;;;4132410;28;19968;-87
2023/07/30 12:03:13;;;;;;;;;;;22.30;55.10;;;;;;4135712;28;19921;-88
2023/07/30 12:05:34;;;;;;;;;;;22.30;55.20;;;;;;4132509;28;20008;-86
2023/07/30 12:07:55;;;;;;;;;;;22.30;55.30;;;;;;4135470;28;19928;-88
2023/07/30 12:10:05;;;;;;;;;;;22.30;55.80;;;;;;4119826;28;20348;-87
2023/07/30 12:12:27;;;;;;;;;;;22.20;54.70;;;;;;4132542;28;20016;-87
2023/07/30 12:14:47;;;;;;;;;;;22.20;55.50;;;;;;4136274;28;19931;-89
2023/07/30 12:17:08;;;;;;;;;;;22.20;54.80;;;;;;4138447;28;20051;-88
2023/07/30 12:19:28;;;;;;;;;;;22.10;54.90;;;;;;4134840;28;19921;-88
2023/07/30 12:21:49;;;;;;;;;;;22.10;54.90;;;;;;4130138;28;19960;-87
2023/07/30 12:24:10;;;;;;;;;;;22.10;54.30;;;;;;4138180;28;19944;-87
2023/07/30 12:26:30;;;;;;;;;;;22.10;54.40;;;;;;4149245;28;19981;-89
2023/07/30 12:28:32;;;;;;;;;;;22.00;54.30;;;;;;4141314;28;19921;-88
2023/07/30 12:30:33;;;;;;;;;;;22.00;54.90;;;;;;4131148;28;19935;-87
2023/07/30 12:32:33;;;;;;;;;;;22.00;54.80;;;;;;4133265;28;19928;-87
2023/07/30 12:34:34;;;;;;;;;;;22.00;54.80;;;;;;4132380;28;19956;-89
2023/07/30 12:36:34;;;;;;;;;;;22.00;54.80;;;;;;4110324;28;19990;-88